createdAt,value
2017-10-06T00:00:57.061Z,100234.13
2017-10-06T00:03:24.670Z,100229.03
2017-10-06T00:05:52.307Z,100234.51
2017-10-06T00:08:19.888Z,100227.55
2017-10-06T00:10:47.484Z,100234.95
2017-10-06T00:13:15.120Z,100227.78
2017-10-06T00:15:42.723Z,100229.20
2017-10-06T00:18:10.323Z,100229.31
2017-10-06T00:20:37.985Z,100217.34
2017-10-06T00:23:05.596Z,100226.03
2017-10-06T00:25:33.205Z,100225.89
2017-10-06T00:28:00.832Z,100221.16
2017-10-06T00:30:28.426Z,100225.67
2017-10-06T00:32:56.016Z,100228.65
2017-10-06T00:35:23.649Z,100223.60
2017-10-06T00:37:51.247Z,100222.49
2017-10-06T00:40:18.852Z,100227.00
2017-10-06T00:42:46.484Z,100232.39
2017-10-06T00:45:14.078Z,100224.56
2017-10-06T00:47:41.675Z,100220.66
2017-10-06T00:50:09.305Z,100219.69
2017-10-06T00:52:36.945Z,100233.21
2017-10-06T00:55:04.577Z,100231.69
2017-10-06T00:57:32.214Z,100226.69
2017-10-06T00:59:59.820Z,100226.77
2017-10-06T01:02:27.743Z,100219.27
2017-10-06T01:04:55.364Z,100221.60
2017-10-06T01:07:22.947Z,100216.36
2017-10-06T01:09:50.845Z,100220.59
2017-10-06T01:12:18.802Z,100221.23
2017-10-06T01:14:46.673Z,100220.81
2017-10-06T01:17:14.261Z,100221.52
2017-10-06T01:19:41.884Z,100220.15
2017-10-06T01:22:09.478Z,100221.70
2017-10-06T01:24:37.076Z,100229.44
2017-10-06T01:27:04.707Z,100221.83
2017-10-06T01:29:32.549Z,100222.44
2017-10-06T01:32:00.144Z,100218.52
2017-10-06T01:34:27.762Z,100215.55
2017-10-06T01:36:55.361Z,100210.80
2017-10-06T01:39:22.954Z,100221.47
2017-10-06T01:41:50.600Z,100205.91
2017-10-06T01:44:18.539Z,100209.14
2017-10-06T01:46:46.136Z,100206.42
2017-10-06T01:49:13.774Z,100203.30
2017-10-06T01:51:41.363Z,100198.37
2017-10-06T01:54:08.969Z,100200.16
2017-10-06T01:56:36.603Z,100206.08
2017-10-06T01:59:04.185Z,100213.34
2017-10-06T02:01:31.776Z,100196.38
2017-10-06T02:03:59.422Z,100196.72
2017-10-06T02:06:27.022Z,100204.98
2017-10-06T02:08:55.109Z,100194.78
2017-10-06T02:11:22.734Z,100197.77
2017-10-06T02:13:50.387Z,100201.83
2017-10-06T02:16:17.984Z,100193.84
2017-10-06T02:18:45.630Z,100201.03
2017-10-06T02:21:13.247Z,100205.77
2017-10-06T02:23:41.141Z,100198.28
2017-10-06T02:26:08.771Z,100190.17
2017-10-06T02:28:36.355Z,100205.71
2017-10-06T02:31:03.943Z,100203.06
2017-10-06T02:33:31.574Z,100193.13
2017-10-06T02:35:59.171Z,100195.55
2017-10-06T02:38:26.772Z,100197.45
2017-10-06T02:40:54.409Z,100192.71
2017-10-06T02:43:22.000Z,100190.91
2017-10-06T02:45:49.586Z,100200.87
2017-10-06T02:48:17.230Z,100190.50
2017-10-06T02:50:44.824Z,100196.97
2017-10-06T02:53:12.535Z,100203.58
2017-10-06T02:55:40.452Z,100192.98
2017-10-06T02:58:08.052Z,100185.16
2017-10-06T03:00:35.881Z,100189.24
2017-10-06T03:03:03.533Z,100179.21
2017-10-06T03:05:31.121Z,100190.48
2017-10-06T03:07:58.717Z,100190.13
2017-10-06T03:10:26.358Z,100194.11
2017-10-06T03:12:53.958Z,100189.94
2017-10-06T03:15:21.552Z,100187.55
2017-10-06T03:17:49.184Z,100192.28
2017-10-06T03:20:16.775Z,100185.33
2017-10-06T03:22:44.372Z,100178.86
2017-10-06T03:25:11.997Z,100183.13
2017-10-06T03:27:39.866Z,100188.20
2017-10-06T03:30:07.473Z,100188.24
2017-10-06T03:32:35.097Z,100183.32
2017-10-06T03:35:02.699Z,100192.11
2017-10-06T03:37:30.288Z,100191.88
2017-10-06T03:39:57.960Z,100186.77
2017-10-06T03:42:25.595Z,100178.98
2017-10-06T03:44:53.177Z,100189.77
2017-10-06T03:47:20.822Z,100189.16
2017-10-06T03:49:48.410Z,100196.80
2017-10-06T03:52:15.996Z,100188.01
2017-10-06T03:54:43.680Z,100191.80
2017-10-06T03:57:11.265Z,100194.55
2017-10-06T03:59:38.849Z,100188.73
2017-10-06T04:02:06.505Z,100190.98
2017-10-06T04:04:34.088Z,100189.92
2017-10-06T04:07:01.676Z,100186.73
2017-10-06T04:09:29.304Z,100196.25
2017-10-06T04:11:57.185Z,100187.45
2017-10-06T04:14:24.774Z,100195.91
2017-10-06T04:16:52.405Z,100189.83
2017-10-06T04:19:20.005Z,100185.66
2017-10-06T04:21:47.593Z,100187.09
2017-10-06T04:24:15.228Z,100183.22
2017-10-06T04:26:42.832Z,100187.64
2017-10-06T04:29:10.462Z,100173.67
2017-10-06T04:31:38.166Z,100184.42
2017-10-06T04:34:05.767Z,100170.23
2017-10-06T04:36:33.346Z,100172.76
2017-10-06T04:39:00.971Z,100182.51
2017-10-06T04:41:28.564Z,100180.82
2017-10-06T04:43:56.207Z,100174.98
2017-10-06T04:46:24.160Z,100177.88
2017-10-06T04:48:51.751Z,100182.56
2017-10-06T04:51:19.349Z,100185.83
2017-10-06T04:53:47.265Z,100189.45
2017-10-06T04:56:14.857Z,100196.95
2017-10-06T04:58:42.466Z,100182.30
2017-10-06T05:01:10.106Z,100193.25
2017-10-06T05:03:37.725Z,100186.00
2017-10-06T05:06:05.310Z,100183.63
2017-10-06T05:08:33.157Z,100182.66
2017-10-06T05:11:00.746Z,100179.94
2017-10-06T05:13:28.347Z,100179.66
2017-10-06T05:15:56.022Z,100191.03
2017-10-06T05:18:23.613Z,100202.28
2017-10-06T05:20:51.213Z,100196.14
2017-10-06T05:23:18.843Z,100197.53
2017-10-06T05:25:46.435Z,100200.75
2017-10-06T05:28:14.018Z,100198.22
2017-10-06T05:30:41.662Z,100196.25
2017-10-06T05:33:09.255Z,100200.63
2017-10-06T05:35:36.847Z,100188.88
2017-10-06T05:38:04.468Z,100195.95
2017-10-06T05:40:32.088Z,100198.30
2017-10-06T05:42:59.674Z,100199.19
2017-10-06T05:45:27.313Z,100192.25
2017-10-06T05:47:54.901Z,100189.70
2017-10-06T05:50:22.792Z,100195.83
2017-10-06T05:52:50.436Z,100195.69
2017-10-06T05:55:18.320Z,100213.95
2017-10-06T05:57:45.955Z,100216.63
2017-10-06T06:00:13.609Z,100210.64
2017-10-06T06:02:41.270Z,100215.20
2017-10-06T06:05:08.873Z,100215.20
2017-10-06T06:07:36.841Z,100218.11
2017-10-06T06:10:04.431Z,100213.05
2017-10-06T06:12:32.033Z,100226.06
2017-10-06T06:14:59.675Z,100229.55
2017-10-06T06:17:27.256Z,100234.77
2017-10-06T06:19:54.871Z,100231.09
2017-10-06T06:22:22.500Z,100236.55
2017-10-06T06:24:50.138Z,100239.23
2017-10-06T06:27:17.757Z,100238.14
2017-10-06T06:29:45.434Z,100242.70
2017-10-06T06:32:13.081Z,100248.46
2017-10-06T06:34:40.678Z,100251.06
2017-10-06T06:37:08.601Z,100236.14
2017-10-06T06:39:36.188Z,100243.72
2017-10-06T06:42:03.770Z,100236.28
2017-10-06T06:44:31.393Z,100248.76
2017-10-06T06:46:59.014Z,100241.41
2017-10-06T06:49:26.608Z,100243.63
2017-10-06T06:51:54.237Z,100241.00
2017-10-06T06:54:21.827Z,100238.55
2017-10-06T06:56:49.693Z,100244.50
2017-10-06T06:59:17.554Z,100250.75
2017-10-06T07:01:45.147Z,100243.34
2017-10-06T07:04:12.746Z,100252.28
2017-10-06T07:06:40.364Z,100258.73
2017-10-06T07:09:07.958Z,100265.45
2017-10-06T07:11:35.554Z,100263.48
2017-10-06T07:14:03.178Z,100265.98
2017-10-06T07:16:31.102Z,100272.43
2017-10-06T07:18:58.689Z,100264.37
2017-10-06T07:21:26.315Z,100272.30
2017-10-06T07:23:53.900Z,100276.31
2017-10-06T07:26:21.482Z,100277.78
2017-10-06T07:28:49.107Z,100281.97
2017-10-06T07:31:16.706Z,100277.12
2017-10-06T07:33:44.308Z,100275.19
2017-10-06T07:36:11.928Z,100285.05
2017-10-06T07:38:39.555Z,100282.16
2017-10-06T07:41:07.434Z,100291.49
2017-10-06T07:43:35.072Z,100287.98
2017-10-06T07:46:02.700Z,100294.66
2017-10-06T07:48:30.296Z,100289.31
2017-10-06T07:50:57.930Z,100303.50
2017-10-06T07:53:25.519Z,100302.54
2017-10-06T07:55:53.109Z,100297.09
2017-10-06T07:58:20.741Z,100295.45
2017-10-06T08:00:48.631Z,100294.81
2017-10-06T08:03:16.249Z,100298.37
2017-10-06T08:05:43.878Z,100294.87
2017-10-06T08:08:11.526Z,100295.06
2017-10-06T08:10:39.128Z,100292.62
2017-10-06T08:13:06.769Z,100282.97
2017-10-06T08:15:34.706Z,100296.55
2017-10-06T08:18:02.293Z,100292.23
2017-10-06T08:20:29.917Z,100292.44
2017-10-06T08:22:57.518Z,100300.01
2017-10-06T08:25:25.141Z,100291.59
2017-10-06T08:27:52.772Z,100298.78
2017-10-06T08:30:20.370Z,100299.38
2017-10-06T08:32:47.957Z,100303.15
2017-10-06T08:35:15.582Z,100308.27
2017-10-06T08:37:43.192Z,100307.11
2017-10-06T08:40:11.133Z,100308.55
2017-10-06T08:42:39.129Z,100311.91
2017-10-06T08:45:06.720Z,100306.94
2017-10-06T08:47:34.328Z,100308.83
2017-10-06T08:50:01.977Z,100314.02
2017-10-06T08:52:29.858Z,100311.41
2017-10-06T08:54:57.453Z,100304.86
2017-10-06T08:57:25.093Z,100308.91
2017-10-06T08:59:52.950Z,100318.77
2017-10-06T09:02:20.538Z,100316.60
2017-10-06T09:04:48.220Z,100311.03
2017-10-06T09:07:15.847Z,100319.73
2017-10-06T09:09:43.441Z,100312.18
2017-10-06T09:12:11.093Z,100316.33
2017-10-06T09:14:38.682Z,100312.54
2017-10-06T09:17:06.269Z,100313.47
2017-10-06T09:19:33.904Z,100311.42
2017-10-06T09:22:01.826Z,100318.37
2017-10-06T09:24:29.424Z,100314.07
2017-10-06T09:26:57.048Z,100322.16
2017-10-06T09:29:24.646Z,100317.63
2017-10-06T09:31:52.253Z,100320.84
2017-10-06T09:34:19.918Z,100334.70
2017-10-06T09:36:47.513Z,100329.38
2017-10-06T09:39:15.093Z,100332.41
2017-10-06T09:41:42.727Z,100326.00
2017-10-06T09:44:10.333Z,100336.52
2017-10-06T09:46:37.936Z,100339.59
2017-10-06T09:49:05.804Z,100341.70
2017-10-06T09:51:33.397Z,100346.41
2017-10-06T09:54:01.001Z,100354.15
2017-10-06T09:56:28.966Z,100353.98
2017-10-06T09:58:56.552Z,100359.93
2017-10-06T10:01:24.164Z,100362.23
2017-10-06T10:03:51.788Z,100354.20
2017-10-06T10:06:19.378Z,100360.92
2017-10-06T10:08:46.973Z,100356.80
2017-10-06T10:11:14.612Z,100362.26
2017-10-06T10:13:42.254Z,100362.67
2017-10-06T10:16:10.196Z,100365.50
2017-10-06T10:18:37.818Z,100369.71
2017-10-06T10:21:05.413Z,100375.77
2017-10-06T10:23:33.049Z,100368.98
2017-10-06T10:26:00.705Z,100378.25
2017-10-06T10:28:28.310Z,100374.38
2017-10-06T10:30:55.902Z,100375.98
2017-10-06T10:33:23.530Z,100372.27
2017-10-06T10:35:51.397Z,100368.52
2017-10-06T10:38:19.004Z,100363.55
2017-10-06T10:40:46.649Z,100370.60
2017-10-06T10:43:14.492Z,100367.72
2017-10-06T10:45:42.073Z,100370.23
2017-10-06T10:48:09.733Z,100367.43
2017-10-06T10:50:37.339Z,100365.87
2017-10-06T10:53:04.930Z,100354.02
2017-10-06T10:55:32.604Z,100363.48
2017-10-06T10:58:00.607Z,100353.80
2017-10-06T11:00:28.269Z,100360.85
2017-10-06T11:02:55.924Z,100348.14
2017-10-06T11:05:23.543Z,100351.08
2017-10-06T11:07:51.153Z,100355.75
2017-10-06T11:10:19.088Z,100355.64
2017-10-06T11:12:46.685Z,100355.52
2017-10-06T11:15:14.283Z,100357.20
2017-10-06T11:17:41.910Z,100362.40
2017-10-06T11:20:09.505Z,100360.05
2017-10-06T11:22:37.111Z,100364.02
2017-10-06T11:25:04.747Z,100372.30
2017-10-06T11:27:32.360Z,100366.28
2017-10-06T11:30:00.303Z,100362.18
2017-10-06T11:32:27.959Z,100360.83
2017-10-06T11:34:55.604Z,100356.94
2017-10-06T11:37:23.220Z,100369.64
2017-10-06T11:39:50.853Z,100361.27
2017-10-06T11:42:18.509Z,100356.41
2017-10-06T11:44:46.152Z,100354.16
2017-10-06T11:47:13.796Z,100357.47
2017-10-06T11:49:41.393Z,100357.92
2017-10-06T11:52:08.990Z,100359.49
2017-10-06T11:54:36.626Z,100363.02
2017-10-06T11:57:04.246Z,100372.61
2017-10-06T11:59:31.847Z,100372.36
2017-10-06T12:01:59.491Z,100373.00
2017-10-06T12:04:27.376Z,100369.12
2017-10-06T12:06:54.972Z,100366.16
2017-10-06T12:09:22.840Z,100368.50
2017-10-06T12:11:50.442Z,100367.38
2017-10-06T12:14:18.335Z,100361.56
2017-10-06T12:16:46.304Z,100367.94
2017-10-06T12:19:13.913Z,100369.59
2017-10-06T12:21:41.511Z,100364.23
2017-10-06T12:24:09.154Z,100371.11
2017-10-06T12:26:37.063Z,100369.14
2017-10-06T12:29:04.678Z,100371.12
2017-10-06T12:31:32.325Z,100370.60
2017-10-06T12:33:59.910Z,100373.56
2017-10-06T12:36:27.495Z,100377.61
2017-10-06T12:38:55.162Z,100378.25
2017-10-06T12:41:22.757Z,100371.84
2017-10-06T12:43:50.358Z,100380.30
2017-10-06T12:46:18.009Z,100378.34
2017-10-06T12:48:45.609Z,100379.78
2017-10-06T12:51:13.485Z,100367.58
2017-10-06T12:53:41.128Z,100368.95
2017-10-06T12:56:08.729Z,100376.56
2017-10-06T12:58:36.342Z,100376.16
2017-10-06T13:01:03.976Z,100371.61
2017-10-06T13:03:31.572Z,100371.17
2017-10-06T13:05:59.196Z,100387.02
2017-10-06T13:08:26.834Z,100378.22
2017-10-06T13:10:54.442Z,100381.98
2017-10-06T13:13:22.048Z,100388.59
2017-10-06T13:15:49.709Z,100387.75
2017-10-06T13:18:17.322Z,100390.37
2017-10-06T13:20:45.343Z,100387.03
2017-10-06T13:23:12.980Z,100391.72
2017-10-06T13:25:40.592Z,100389.66
2017-10-06T13:28:08.225Z,100400.94
2017-10-06T13:30:35.848Z,100414.73
2017-10-06T13:33:03.456Z,100400.70
2017-10-06T13:35:31.108Z,100413.02
2017-10-06T13:37:58.737Z,100407.83
2017-10-06T13:40:26.339Z,100412.96
2017-10-06T13:42:53.959Z,100413.98
2017-10-06T13:45:21.968Z,100422.44
2017-10-06T13:47:49.570Z,100431.30
2017-10-06T13:50:17.203Z,100434.66
2017-10-06T13:52:44.855Z,100436.80
2017-10-06T13:55:12.461Z,100439.88
2017-10-06T13:57:40.073Z,100432.02
2017-10-06T14:00:07.739Z,100451.64
2017-10-06T14:02:35.332Z,100486.31
2017-10-06T14:05:02.999Z,100461.83
2017-10-06T14:07:30.643Z,100451.55
2017-10-06T14:09:58.245Z,100456.41
2017-10-06T14:12:26.065Z,100462.66
2017-10-06T14:14:53.695Z,100471.34
2017-10-06T14:17:21.285Z,100476.04
2017-10-06T14:19:48.889Z,100512.21
2017-10-06T14:22:16.812Z,100499.50
2017-10-06T14:24:44.459Z,100504.89
2017-10-06T14:27:12.056Z,100488.20
2017-10-06T14:29:39.714Z,100498.98
2017-10-06T14:32:07.323Z,100508.19
2017-10-06T14:34:34.919Z,100512.62
2017-10-06T14:37:02.582Z,100509.95
2017-10-06T14:39:30.170Z,100509.63
2017-10-06T14:41:57.822Z,100509.28
2017-10-06T14:44:25.447Z,100515.94
2017-10-06T14:46:53.057Z,100519.77
2017-10-06T14:49:20.661Z,100521.41
2017-10-06T14:51:48.309Z,100525.48
2017-10-06T14:54:16.226Z,100523.39
2017-10-06T14:56:43.825Z,100526.44
2017-10-06T14:59:11.472Z,100528.88
2017-10-06T15:01:39.434Z,100533.94
2017-10-06T15:04:07.044Z,100539.80
2017-10-06T15:06:34.701Z,100536.12
2017-10-06T15:09:02.315Z,100540.22
2017-10-06T15:11:29.935Z,100549.49
2017-10-06T15:13:57.590Z,100551.56
2017-10-06T15:16:25.190Z,100551.38
2017-10-06T15:18:52.804Z,100547.70
2017-10-06T15:21:20.459Z,100557.23
2017-10-06T15:23:48.074Z,100565.87
2017-10-06T15:26:15.690Z,100564.86
2017-10-06T15:28:43.329Z,100559.33
2017-10-06T15:31:10.932Z,100563.88
2017-10-06T15:33:38.849Z,100562.55
2017-10-06T15:36:06.805Z,100564.63
2017-10-06T15:38:34.419Z,100574.41
2017-10-06T15:41:02.043Z,100582.75
2017-10-06T15:43:29.704Z,100580.82
2017-10-06T15:45:57.317Z,100589.80
2017-10-06T15:48:24.957Z,100596.72
2017-10-06T15:50:52.604Z,100604.42
2017-10-06T15:53:20.271Z,100602.34
2017-10-06T15:55:47.877Z,100610.46
2017-10-06T15:58:15.524Z,100610.55
2017-10-06T16:00:43.149Z,100621.48
2017-10-06T16:03:10.752Z,100624.25
2017-10-06T16:05:38.399Z,100631.81
2017-10-06T16:08:06.028Z,100634.29
2017-10-06T16:10:33.627Z,100639.82
2017-10-06T16:13:01.556Z,100642.74
2017-10-06T16:15:29.426Z,100644.77
2017-10-06T16:17:57.085Z,100650.77
2017-10-06T16:20:25.050Z,100657.94
2017-10-06T16:22:52.645Z,100663.15
2017-10-06T16:25:20.260Z,100666.01
2017-10-06T16:27:48.249Z,100675.13
2017-10-06T16:30:15.836Z,100676.05
2017-10-06T16:32:43.444Z,100675.85
2017-10-06T16:35:11.081Z,100679.20
2017-10-06T16:37:38.684Z,100682.54
2017-10-06T16:40:06.565Z,100679.40
2017-10-06T16:42:34.284Z,100685.34
2017-10-06T16:45:01.872Z,100691.36
2017-10-06T16:47:29.479Z,100698.80
2017-10-06T16:49:57.118Z,100699.77
2017-10-06T16:52:24.773Z,100702.80
2017-10-06T16:54:52.369Z,100705.20
2017-10-06T16:57:20.005Z,100712.20
2017-10-06T16:59:47.615Z,100713.00
2017-10-06T17:02:15.247Z,100723.28
2017-10-06T17:04:42.896Z,100729.55
2017-10-06T17:07:10.494Z,100728.21
2017-10-06T17:09:38.091Z,100733.20
2017-10-06T17:12:05.728Z,100730.03
2017-10-06T17:14:33.316Z,100739.44
2017-10-06T17:17:00.929Z,100743.13
2017-10-06T17:19:28.565Z,100754.86
2017-10-06T17:21:56.196Z,100755.33
2017-10-06T17:24:23.831Z,100764.03
2017-10-06T17:26:51.477Z,100764.03
2017-10-06T17:29:19.065Z,100772.85
2017-10-06T17:31:46.664Z,100777.95
2017-10-06T17:34:14.308Z,100775.97
2017-10-06T17:36:41.919Z,100785.58
2017-10-06T17:39:09.522Z,100783.23
2017-10-06T17:41:37.419Z,100784.75
2017-10-06T17:44:05.022Z,100782.05
2017-10-06T17:46:32.683Z,100784.56
2017-10-06T17:49:00.323Z,100795.43
2017-10-06T17:51:27.912Z,100801.48
2017-10-06T17:53:55.505Z,100805.93
2017-10-06T17:56:23.398Z,100812.28
2017-10-06T17:58:51.004Z,100816.79
2017-10-06T18:01:18.610Z,100822.13
2017-10-06T18:03:46.242Z,100819.47
2017-10-06T18:06:13.843Z,100819.05
2017-10-06T18:08:41.718Z,100821.51
2017-10-06T18:11:09.378Z,100823.02
2017-10-06T18:13:36.986Z,100831.47
2017-10-06T18:16:04.908Z,100833.22
2017-10-06T18:18:32.876Z,100830.51
2017-10-06T18:21:00.745Z,100840.12
2017-10-06T18:23:28.344Z,100840.88
2017-10-06T18:25:56.273Z,100848.89
2017-10-06T18:28:23.873Z,100846.59
2017-10-06T18:30:51.481Z,100855.46
2017-10-06T18:33:19.465Z,100861.92
2017-10-06T18:35:47.076Z,100869.19
2017-10-06T18:38:14.686Z,100872.95
2017-10-06T18:40:42.316Z,100881.37
2017-10-06T18:43:10.329Z,100884.55
2017-10-06T18:45:38.197Z,100889.97
2017-10-06T18:48:05.851Z,100891.98
2017-10-06T18:50:33.726Z,100894.57
2017-10-06T18:53:01.590Z,100902.66
2017-10-06T18:55:29.560Z,100900.91
2017-10-06T18:57:57.167Z,100902.25
2017-10-06T19:00:25.093Z,100910.63
2017-10-06T19:02:52.731Z,100915.39
2017-10-06T19:05:20.355Z,100919.64
2017-10-06T19:07:47.982Z,100918.81
2017-10-06T19:10:15.623Z,100922.73
2017-10-06T19:12:43.233Z,100925.73
2017-10-06T19:15:10.825Z,100935.00
2017-10-06T19:17:38.458Z,100937.00
2017-10-06T19:20:06.053Z,100949.88
2017-10-06T19:22:33.674Z,100943.05
2017-10-06T19:25:01.301Z,100945.63
2017-10-06T19:27:28.892Z,100947.72
2017-10-06T19:29:56.489Z,100949.25
2017-10-06T19:32:24.137Z,100951.00
2017-10-06T19:34:51.728Z,100957.23
2017-10-06T19:37:19.329Z,100959.48
2017-10-06T19:39:46.968Z,100961.98
2017-10-06T19:42:14.577Z,100965.09
2017-10-06T19:44:42.194Z,100967.77
2017-10-06T19:47:09.864Z,100967.19
2017-10-06T19:49:37.487Z,100975.77
2017-10-06T19:52:05.081Z,100973.69
2017-10-06T19:54:32.979Z,100978.78
2017-10-06T19:57:00.581Z,100972.55
2017-10-06T19:59:28.181Z,100976.72
2017-10-06T20:01:56.292Z,100979.36
2017-10-06T20:04:23.915Z,100985.00
2017-10-06T20:06:51.516Z,100983.61
2017-10-06T20:09:19.667Z,100987.53
2017-10-06T20:11:47.283Z,100993.28
2017-10-06T20:14:15.193Z,101000.37
2017-10-06T20:16:43.286Z,100999.53
2017-10-06T20:19:10.889Z,101002.03
2017-10-06T20:21:38.490Z,101010.03
2017-10-06T20:24:06.152Z,101016.95
2017-10-06T20:26:33.741Z,101006.95
2017-10-06T20:29:01.411Z,101019.81
2017-10-06T20:31:29.153Z,101017.40
2017-10-06T20:33:56.749Z,101028.25
2017-10-06T20:36:25.178Z,101029.41
2017-10-06T20:38:52.809Z,101032.50
2017-10-06T20:41:20.400Z,101039.65
2017-10-06T20:43:48.008Z,101039.73
2017-10-06T20:46:15.680Z,101032.48
2017-10-06T20:48:43.291Z,101036.98
2017-10-06T20:51:10.887Z,101036.90
2017-10-06T20:53:38.526Z,101040.83
2017-10-06T20:56:06.124Z,101039.76
2017-10-06T20:58:33.731Z,101038.34
2017-10-06T21:01:01.385Z,101043.83
2017-10-06T21:03:29.276Z,101040.42
2017-10-06T21:05:56.891Z,101040.85
2017-10-06T21:08:24.533Z,101041.25
2017-10-06T21:10:52.151Z,101045.67
2017-10-06T21:13:19.754Z,101045.84
2017-10-06T21:15:47.688Z,101048.84
2017-10-06T21:18:15.280Z,101045.51
2017-10-06T21:20:42.881Z,101048.27
2017-10-06T21:23:10.528Z,101055.91
2017-10-06T21:25:38.129Z,101053.50
2017-10-06T21:28:05.730Z,101055.91
2017-10-06T21:30:33.369Z,101052.26
2017-10-06T21:33:00.984Z,101058.37
2017-10-06T21:35:28.589Z,101062.64
2017-10-06T21:37:56.233Z,101059.00
2017-10-06T21:40:23.826Z,101057.50
2017-10-06T21:42:51.422Z,101061.09
2017-10-06T21:45:19.336Z,101059.91
2017-10-06T21:47:46.935Z,101064.56
2017-10-06T21:50:14.531Z,101058.40
2017-10-06T21:52:42.191Z,101066.06
2017-10-06T21:55:09.791Z,101060.81
2017-10-06T21:57:37.408Z,101068.81
2017-10-06T22:00:05.313Z,101073.24
2017-10-06T22:02:32.925Z,101074.66
2017-10-06T22:05:00.581Z,101079.77
2017-10-06T22:07:28.225Z,101075.17
2017-10-06T22:09:56.174Z,101078.48
2017-10-06T22:12:23.788Z,101077.64
2017-10-06T22:14:51.425Z,101072.73
2017-10-06T22:17:19.021Z,101079.81
2017-10-06T22:19:46.614Z,101078.58
2017-10-06T22:22:14.252Z,101085.16
2017-10-06T22:24:41.849Z,101093.90
2017-10-06T22:27:09.714Z,101089.16
2017-10-06T22:29:37.352Z,101101.23
2017-10-06T22:32:04.945Z,101105.30
2017-10-06T22:34:32.804Z,101103.33
2017-10-06T22:37:00.444Z,101108.14
2017-10-06T22:39:28.335Z,101104.66
2017-10-06T22:41:56.206Z,101106.55
2017-10-06T22:44:23.837Z,101108.22
2017-10-06T22:46:51.434Z,101102.31
2017-10-06T22:49:19.026Z,101107.47
2017-10-06T22:51:46.671Z,101105.41
2017-10-06T22:54:14.278Z,101104.83
2017-10-06T22:56:41.868Z,101112.82
2017-10-06T22:59:09.502Z,101106.58
2017-10-06T23:01:37.093Z,101110.88
2017-10-06T23:04:04.701Z,101106.16
2017-10-06T23:06:32.633Z,101114.14
2017-10-06T23:09:00.237Z,101117.48
2017-10-06T23:11:27.839Z,101113.55
2017-10-06T23:13:55.480Z,101106.98
2017-10-06T23:16:23.071Z,101107.98
2017-10-06T23:18:50.669Z,101110.89
2017-10-06T23:21:18.325Z,101115.63
2017-10-06T23:23:45.924Z,101117.40
2017-10-06T23:26:13.510Z,101119.98
2017-10-06T23:28:41.149Z,101119.91
2017-10-06T23:31:08.763Z,101128.63
2017-10-06T23:33:36.368Z,101133.31
2017-10-06T23:36:03.990Z,101128.95
2017-10-06T23:38:31.585Z,101127.98
2017-10-06T23:40:59.175Z,101126.23
2017-10-06T23:43:27.164Z,101127.48
2017-10-06T23:45:54.751Z,101123.11
2017-10-06T23:48:22.337Z,101121.55
2017-10-06T23:50:50.261Z,101126.46
2017-10-06T23:53:17.860Z,101123.81
2017-10-06T23:55:45.448Z,101125.28
2017-10-06T23:58:13.078Z,101126.55
